Página principal
METAR-TAF:

METAR-TAF

Aeroportos :

Sam Mbakwe Airport

Owerri, Nigéria

latitude: 5-25-35N, longitude: 7-12-20E, altura: 114 m

Observação actual do tempo

O boletim foi feito há 46 minutos, às 16:00 UTC
Vento 8 kt de su-sudoeste
Temperatura 31°C
Humidade 71%
Pressão 1011 hPa
Visibilidade 10 km ou mais
Poucas nuvensa uma altura de 1900 ft, Cumulonimbus.

METAR: DNIM 221600Z 21008KT 9999 BKN0012 FEW019CB 31/25 Q1011

Hora: 17:46 (16:46 UTC)


TAF: em falta

Observações e previsões do tempo de mais de 4000 aeroportos (mensagens METAR e TAF).

As estações disponíveis são os pontos amarelos e vermelhos sobre o mapa.

Mova o rato sobre o mapa para ver o nome da estação.

Depois clique no ponto para visualizar as observações e previsões meteorológicas.

Para alterar o mapa : clique nos botões verdes com uma cruz preta para aumentar o zoom; no botão verde com uma pitada de zoom; ou nas setas verdes para mapas adjacentes.


METAR-TAF: